Time;durP1;ratioP1;P1;durP2;ratioP2;P2;SDS_P1;SDS_P2;PMS_P1;PMS_P2;Temp;Humidity;BMP_temperature;BMP_pressure;BME280_temperature;BME280_humidity;BME280_pressure;Samples;Min_cycle;Max_cycle;Signal;HPM_P1;HPM_P2
2022/07/20 00:01:59;;;;;;;7.37;3.97;;;23.80;56.00;;;;;;5164093;27;20043;-75
2022/07/20 00:04:24;;;;;;;9.80;3.73;;;23.70;56.20;;;;;;5158931;27;20076;-76
2022/07/20 00:06:50;;;;;;;9.60;4.03;;;23.70;56.40;;;;;;5159851;27;20426;-75
2022/07/20 00:12:00;;;;;;;8.18;4.13;;;23.60;56.60;;;;;;5139597;27;20050;-76
2022/07/20 00:14:26;;;;;;;7.97;4.20;;;23.50;56.70;;;;;;5155371;27;20096;-75
2022/07/20 00:16:52;;;;;;;15.67;4.40;;;23.50;56.60;;;;;;5154715;27;20432;-76
2022/07/20 00:19:18;;;;;;;8.00;4.35;;;23.50;56.70;;;;;;5119238;27;20418;-77
2022/07/20 00:21:44;;;;;;;8.13;4.33;;;23.40;56.80;;;;;;5153335;27;20115;-76
2022/07/20 00:24:09;;;;;;;9.50;4.25;;;23.40;56.80;;;;;;5134897;27;20396;-76
2022/07/20 00:26:35;;;;;;;9.03;4.17;;;23.40;56.90;;;;;;5153603;27;20097;-76
2022/07/20 00:29:01;;;;;;;8.43;4.47;;;23.40;56.80;;;;;;5120537;27;20379;-76
2022/07/20 00:31:26;;;;;;;10.13;4.70;;;23.30;56.90;;;;;;5156379;27;20046;-76
2022/07/20 00:33:52;;;;;;;10.40;4.77;;;23.30;57.00;;;;;;5156375;27;20399;-76
2022/07/20 00:36:19;;;;;;;12.10;5.13;;;23.30;57.00;;;;;;5157244;27;20451;-75
2022/07/20 00:38:45;;;;;;;10.20;4.70;;;23.20;57.00;;;;;;5156968;27;20467;-75
2022/07/20 00:41:11;;;;;;;11.52;4.75;;;23.20;57.10;;;;;;5121583;27;20061;-75
2022/07/20 00:43:58;;;;;;;9.18;4.47;;;23.20;57.20;;;;;;5157104;27;20042;-76
2022/07/20 00:46:25;;;;;;;10.35;4.93;;;23.20;57.10;;;;;;5157429;27;20049;-76
2022/07/20 00:48:51;;;;;;;8.68;4.60;;;23.20;57.20;;;;;;5157430;27;20150;-76
2022/07/20 00:51:17;;;;;;;10.75;4.95;;;23.20;57.10;;;;;;5157123;27;20038;-76
2022/07/20 00:53:44;;;;;;;7.73;4.47;;;23.20;57.20;;;;;;5138406;27;20094;-77
2022/07/20 00:56:11;;;;;;;10.05;5.05;;;23.10;57.20;;;;;;5157116;27;20286;-76
2022/07/20 00:58:37;;;;;;;11.00;4.82;;;23.10;57.20;;;;;;5138584;27;20042;-76
2022/07/20 01:01:03;;;;;;;8.07;4.57;;;23.10;57.50;;;;;;5138890;27;20058;-76
2022/07/20 01:03:29;;;;;;;9.10;4.57;;;23.00;57.50;;;;;;5156726;27;20502;-76
2022/07/20 01:05:55;;;;;;;;;;;23.00;57.60;;;;;;5157592;27;20466;-76
2022/07/20 01:08:21;;;;;;;8.43;4.72;;;22.90;57.40;;;;;;5156882;27;19919;-76
2022/07/20 01:10:47;;;;;;;8.70;4.80;;;22.90;57.70;;;;;;5156636;27;20046;-76
2022/07/20 01:13:13;;;;;;;11.38;4.72;;;22.90;57.70;;;;;;5156815;27;20053;-75
2022/07/20 01:15:38;;;;;;;8.85;5.25;;;22.80;57.70;;;;;;5157188;27;20142;-76
2022/07/20 01:18:04;;;;;;;7.93;4.50;;;22.80;57.70;;;;;;5138126;27;20057;-76
2022/07/20 01:20:30;;;;;;;8.23;4.70;;;22.80;57.80;;;;;;5120554;27;20405;-77
2022/07/20 01:22:56;;;;;;;9.00;4.90;;;22.80;58.00;;;;;;5156441;27;20292;-75
2022/07/20 01:25:22;;;;;;;11.73;4.90;;;22.80;58.10;;;;;;5156983;27;20046;-75
2022/07/20 01:27:48;;;;;;;10.38;4.70;;;22.80;58.10;;;;;;5137780;27;20365;-76
2022/07/20 01:30:14;;;;;;;13.85;5.00;;;22.70;58.00;;;;;;5156461;27;20461;-75
2022/07/20 01:32:39;;;;;;;9.70;5.10;;;22.70;58.20;;;;;;5156334;27;20049;-76
2022/07/20 01:35:06;;;;;;;15.30;5.00;;;22.70;58.30;;;;;;5155816;27;20478;-76
2022/07/20 01:37:32;;;;;;;7.20;4.53;;;22.60;58.40;;;;;;5156589;27;20111;-76
2022/07/20 01:39:58;;;;;;;9.18;4.90;;;22.50;58.40;;;;;;5137243;27;20043;-79
2022/07/20 01:42:24;;;;;;;8.88;5.10;;;22.50;58.50;;;;;;5156372;27;20043;-75
2022/07/20 01:44:50;;;;;;;9.05;5.00;;;22.50;58.70;;;;;;5121162;27;20074;-76
2022/07/20 01:47:15;;;;;;;9.10;5.03;;;22.50;58.80;;;;;;5103480;27;20496;-77
2022/07/20 01:49:41;;;;;;;11.17;5.40;;;22.40;58.90;;;;;;5156446;27;20043;-77
2022/07/20 01:52:07;;;;;;;12.77;5.30;;;22.40;59.10;;;;;;5137691;27;20428;-77
2022/07/20 01:54:32;;;;;;;12.10;5.10;;;22.30;59.20;;;;;;5155981;27;20122;-77
2022/07/20 01:56:58;;;;;;;9.43;4.83;;;22.30;59.30;;;;;;5155923;27;20038;-79
2022/07/20 01:59:24;;;;;;;8.63;4.87;;;22.20;59.50;;;;;;5155993;27;20393;-77
2022/07/20 02:01:49;;;;;;;8.77;5.30;;;22.20;59.40;;;;;;5154910;27;20038;-78
2022/07/20 02:04:15;;;;;;;15.77;5.53;;;22.20;59.40;;;;;;5156040;27;20074;-78
2022/07/20 02:06:41;;;;;;;10.67;5.33;;;22.20;59.50;;;;;;5155625;27;20456;-77
2022/07/20 02:09:06;;;;;;;10.50;5.50;;;22.20;59.60;;;;;;5154742;27;20094;-77
2022/07/20 02:11:32;;;;;;;8.73;5.33;;;22.10;59.50;;;;;;5155573;27;20043;-77
2022/07/20 02:13:58;;;;;;;10.70;5.23;;;22.10;59.60;;;;;;5156175;27;20042;-77
2022/07/20 02:16:23;;;;;;;8.87;5.40;;;22.10;59.70;;;;;;5155553;27;20518;-78
2022/07/20 02:18:52;;;;;;;11.97;5.90;;;22.10;59.90;;;;;;5155628;27;20483;-77
2022/07/20 02:21:20;;;;;;;11.60;5.53;;;22.10;59.80;;;;;;5155593;27;20530;-77
2022/07/20 02:23:46;;;;;;;10.98;4.90;;;22.10;60.00;;;;;;5155299;27;20050;-78
2022/07/20 02:26:12;;;;;;;15.23;5.70;;;22.00;60.20;;;;;;5155457;27;20050;-76
2022/07/20 02:28:39;;;;;;;11.63;5.20;;;22.00;60.20;;;;;;5155717;27;20085;-76
2022/07/20 02:31:05;;;;;;;;;;;21.90;60.30;;;;;;5121197;27;20131;-76
2022/07/20 02:33:32;;;;;;;9.07;5.60;;;21.90;60.40;;;;;;5137116;27;20387;-76
2022/07/20 02:35:58;;;;;;;11.20;5.55;;;21.90;60.60;;;;;;5138193;27;20103;-77
2022/07/20 02:38:24;;;;;;;11.88;5.63;;;21.80;60.70;;;;;;5155763;27;20050;-77
2022/07/20 02:40:50;;;;;;;12.18;5.68;;;21.80;60.80;;;;;;5132864;27;20051;-76
2022/07/20 02:43:16;;;;;;;10.52;5.78;;;21.70;61.00;;;;;;5134701;27;20051;-77
2022/07/20 02:45:41;;;;;;;10.57;6.13;;;21.60;61.10;;;;;;5134466;27;20042;-75
2022/07/20 02:48:09;;;;;;;8.07;5.38;;;21.60;61.30;;;;;;5134813;27;20179;-76
2022/07/20 02:50:38;;;;;;;9.02;5.85;;;21.60;61.40;;;;;;5115246;28;20449;-75
2022/07/20 02:53:05;;;;;;;10.00;5.53;;;21.50;61.50;;;;;;5133099;27;20199;-77
2022/07/20 02:55:31;;;;;;;10.93;5.47;;;21.50;61.60;;;;;;5116030;27;20058;-76
2022/07/20 02:57:57;;;;;;;11.10;5.78;;;21.50;61.70;;;;;;5134087;27;20049;-76
2022/07/20 03:00:23;;;;;;;8.13;5.40;;;21.50;61.80;;;;;;5133326;27;20043;-76
2022/07/20 03:02:49;;;;;;;12.85;6.22;;;21.40;62.00;;;;;;5134056;27;20112;-77
2022/07/20 03:05:15;;;;;;;9.43;5.90;;;21.40;62.00;;;;;;5150096;27;20050;-76
2022/07/20 03:07:43;;;;;;;12.07;5.47;;;21.30;62.00;;;;;;5132802;27;20058;-77
2022/07/20 03:10:09;;;;;;;10.50;5.97;;;21.30;62.00;;;;;;5137135;27;20051;-76
2022/07/20 03:12:34;;;;;;;11.32;5.57;;;21.40;62.20;;;;;;5132471;27;20078;-76
2022/07/20 03:15:01;;;;;;;14.93;5.57;;;21.30;62.20;;;;;;5132497;27;20149;-77
2022/07/20 03:17:27;;;;;;;11.45;5.47;;;21.30;62.30;;;;;;5134545;27;20379;-75
2022/07/20 03:19:53;;;;;;;11.13;5.90;;;21.30;62.40;;;;;;5133773;27;20047;-76
2022/07/20 03:22:18;;;;;;;13.63;5.80;;;21.30;62.40;;;;;;5133527;27;20184;-77
2022/07/20 03:24:44;;;;;;;9.33;5.73;;;21.30;62.40;;;;;;5133867;27;20047;-76
2022/07/20 03:27:10;;;;;;;8.30;6.07;;;21.30;62.40;;;;;;5133786;27;20116;-76
2022/07/20 03:29:36;;;;;;;13.98;6.13;;;21.30;62.50;;;;;;5134129;27;20058;-75
2022/07/20 03:32:02;;;;;;;10.17;5.77;;;21.30;62.50;;;;;;5133251;27;20043;-76
2022/07/20 03:34:28;;;;;;;11.05;5.72;;;21.20;62.50;;;;;;5132578;27;20047;-76
2022/07/20 03:36:53;;;;;;;9.50;5.77;;;21.20;62.60;;;;;;5149355;27;20043;-76
2022/07/20 03:39:19;;;;;;;14.37;6.13;;;21.20;62.60;;;;;;5132969;27;20541;-76
2022/07/20 03:41:45;;;;;;;9.07;6.13;;;21.20;62.60;;;;;;5132479;27;20069;-76
2022/07/20 03:44:11;;;;;;;13.33;6.00;;;21.20;62.80;;;;;;5150057;27;20449;-77
2022/07/20 03:46:37;;;;;;;12.23;5.83;;;21.20;62.60;;;;;;5133900;27;20042;-77
2022/07/20 03:49:03;;;;;;;8.60;5.90;;;21.20;62.70;;;;;;5132313;27;20047;-77
2022/07/20 03:51:29;;;;;;;12.45;6.97;;;21.20;62.80;;;;;;5133206;27;20066;-75
2022/07/20 03:53:55;;;;;;;11.10;6.17;;;21.20;62.70;;;;;;5132258;28;20069;-77
2022/07/20 03:56:22;;;;;;;9.73;6.10;;;21.20;62.80;;;;;;5133017;28;20156;-75
2022/07/20 03:58:47;;;;;;;;;;;21.20;62.70;;;;;;5134133;27;20162;-76
2022/07/20 04:01:13;;;;;;;10.93;5.82;;;21.20;62.70;;;;;;5133507;28;20023;-76
2022/07/20 04:03:39;;;;;;;10.20;6.30;;;21.20;62.80;;;;;;5136903;27;20126;-76
2022/07/20 04:06:05;;;;;;;14.70;6.00;;;21.20;62.90;;;;;;5137587;27;20114;-76
2022/07/20 04:08:31;;;;;;;11.90;5.93;;;21.20;63.00;;;;;;5119295;27;20039;-76
2022/07/20 04:10:56;;;;;;;9.97;5.53;;;21.20;63.00;;;;;;5101922;27;20050;-77
2022/07/20 04:13:22;;;;;;;12.20;5.93;;;21.20;63.10;;;;;;5153484;27;20321;-76
2022/07/20 04:15:48;;;;;;;12.60;6.03;;;21.20;63.10;;;;;;5135752;27;20089;-76
2022/07/20 04:18:17;;;;;;;12.50;6.17;;;21.20;63.20;;;;;;5136799;27;20047;-77
2022/07/20 04:20:42;;;;;;;16.05;5.78;;;21.30;63.30;;;;;;5135624;27;20054;-76
2022/07/20 04:23:08;;;;;;;15.83;6.00;;;21.30;63.40;;;;;;5136108;27;20043;-75
2022/07/20 04:25:34;;;;;;;10.30;5.88;;;21.20;63.70;;;;;;5119264;27;20078;-75
2022/07/20 04:28:00;;;;;;;10.27;6.00;;;21.20;64.10;;;;;;5135549;27;20090;-76
2022/07/20 04:30:26;;;;;;;10.30;6.00;;;21.20;64.60;;;;;;5137393;27;20039;-74
2022/07/20 04:32:51;;;;;;;14.13;6.93;;;21.20;64.30;;;;;;5135879;27;20134;-75
2022/07/20 04:35:17;;;;;;;14.30;6.80;;;21.30;64.10;;;;;;5136904;27;20097;-75
2022/07/20 04:37:43;;;;;;;14.53;5.90;;;21.20;64.10;;;;;;5153327;27;20150;-75
2022/07/20 04:40:09;;;;;;;9.47;6.27;;;21.30;64.00;;;;;;5118608;27;20130;-75
2022/07/20 04:42:35;;;;;;;14.57;6.07;;;21.30;64.00;;;;;;5100847;27;20061;-75
2022/07/20 04:45:01;;;;;;;14.20;6.20;;;21.30;64.00;;;;;;5118975;27;20047;-74
2022/07/20 04:47:26;;;;;;;13.07;5.90;;;21.30;64.10;;;;;;5136426;27;20082;-75
2022/07/20 04:49:52;;;;;;;10.73;6.17;;;21.30;64.30;;;;;;5136355;27;20380;-75
2022/07/20 04:52:18;;;;;;;9.70;6.10;;;21.30;64.40;;;;;;5136021;27;20097;-76
2022/07/20 04:54:43;;;;;;;10.67;5.77;;;21.40;64.50;;;;;;5137722;27;20387;-75
2022/07/20 04:57:10;;;;;;;10.60;5.77;;;21.40;64.50;;;;;;5136841;27;20035;-76
2022/07/20 04:59:37;;;;;;;10.20;6.25;;;21.40;64.60;;;;;;5118866;27;20050;-75
2022/07/20 05:02:03;;;;;;;10.15;6.05;;;21.50;64.80;;;;;;5136438;27;20147;-74
2022/07/20 05:04:29;;;;;;;13.23;6.47;;;21.50;65.30;;;;;;5136922;27;20073;-75
2022/07/20 05:06:55;;;;;;;11.43;5.73;;;21.50;65.50;;;;;;5135376;27;20482;-75
2022/07/20 05:09:21;;;;;;;12.07;6.13;;;21.50;65.80;;;;;;5118491;27;20100;-76
2022/07/20 05:11:46;;;;;;;13.63;6.10;;;21.50;66.20;;;;;;5118978;27;20089;-75
2022/07/20 05:14:12;;;;;;;14.23;6.80;;;21.50;66.60;;;;;;5151595;27;20055;-76
2022/07/20 05:16:38;;;;;;;12.80;6.43;;;21.50;66.80;;;;;;5118994;27;20062;-75
2022/07/20 05:19:04;;;;;;;12.73;5.80;;;21.50;66.50;;;;;;5134747;27;20491;-74
2022/07/20 05:21:29;;;;;;;12.87;5.83;;;21.50;66.40;;;;;;5136199;27;20146;-76
2022/07/20 05:23:55;;;;;;;10.60;6.13;;;21.60;66.40;;;;;;5135047;27;20051;-75
2022/07/20 05:26:21;;;;;;;12.40;6.40;;;21.60;66.10;;;;;;5136421;27;20143;-75
2022/07/20 05:28:47;;;;;;;10.60;5.97;;;21.70;66.10;;;;;;5135048;27;20047;-75
2022/07/20 05:31:13;;;;;;;12.80;6.17;;;21.80;66.30;;;;;;5136072;27;20051;-75
2022/07/20 05:33:40;;;;;;;15.52;6.90;;;21.80;66.20;;;;;;5136175;27;20126;-76
2022/07/20 05:36:06;;;;;;;11.15;6.25;;;21.90;66.00;;;;;;5136377;27;20055;-75
2022/07/20 05:38:32;;;;;;;14.82;6.75;;;21.90;66.70;;;;;;5135854;27;20073;-75
2022/07/20 05:40:58;;;;;;;14.60;6.20;;;22.00;65.80;;;;;;5142002;27;20058;-75
2022/07/20 05:43:24;;;;;;;16.50;6.38;;;22.00;65.80;;;;;;5156943;27;20047;-76
2022/07/20 05:45:50;;;;;;;17.83;6.30;;;22.10;66.10;;;;;;5138458;27;20051;-76
2022/07/20 05:48:16;;;;;;;13.68;6.65;;;22.10;66.10;;;;;;5156585;27;20043;-77
2022/07/20 05:50:43;;;;;;;14.37;6.37;;;22.20;66.00;;;;;;5157262;27;20050;-76
2022/07/20 05:53:10;;;;;;;10.00;6.15;;;22.30;65.80;;;;;;5156665;27;20129;-75
2022/07/20 05:55:37;;;;;;;13.32;5.95;;;22.50;65.60;;;;;;5156989;27;20047;-77
2022/07/20 05:58:06;;;;;;;10.38;5.85;;;22.50;65.90;;;;;;5138128;27;20101;-76
2022/07/20 06:00:32;;;;;;;13.00;6.35;;;22.50;65.90;;;;;;5123133;27;20457;-76
2022/07/20 06:02:58;;;;;;;14.80;6.30;;;22.60;65.80;;;;;;5138789;27;20050;-76
2022/07/20 06:05:24;;;;;;;16.65;6.10;;;22.70;66.00;;;;;;5156072;27;20038;-77
2022/07/20 06:07:50;;;;;;;15.65;6.28;;;22.70;66.60;;;;;;5137814;27;20073;-77
2022/07/20 06:10:16;;;;;;;15.87;6.00;;;22.80;66.10;;;;;;5156125;27;20051;-77
2022/07/20 06:12:41;;;;;;;13.07;6.20;;;22.80;66.00;;;;;;5120652;27;20129;-75
2022/07/20 06:15:07;;;;;;;9.07;5.90;;;22.90;66.20;;;;;;5155993;27;20126;-76
2022/07/20 06:17:39;;;;;;;15.35;6.53;;;22.90;66.10;;;;;;5138064;27;20054;-75
2022/07/20 06:20:10;;;;;;;11.18;6.38;;;23.00;66.50;;;;;;5155841;27;20183;-75
2022/07/20 06:22:36;;;;;;;11.70;6.15;;;23.10;66.40;;;;;;5155567;27;20047;-77
2022/07/20 06:25:04;;;;;;;15.45;6.25;;;23.20;66.10;;;;;;5137076;27;20052;-76
2022/07/20 06:27:30;;;;;;;10.30;6.43;;;23.30;67.10;;;;;;5156328;27;20042;-77
2022/07/20 06:29:56;;;;;;;15.10;6.60;;;23.30;66.00;;;;;;5137067;27;20057;-77
2022/07/20 06:32:22;;;;;;;14.13;6.65;;;23.40;65.80;;;;;;5119952;27;20303;-76
2022/07/20 06:34:48;;;;;;;16.23;6.43;;;23.50;65.70;;;;;;5120662;27;20043;-76
2022/07/20 06:37:13;;;;;;;14.17;6.63;;;23.50;65.30;;;;;;5159982;27;20049;-80
2022/07/20 06:39:39;;;;;;;16.77;6.67;;;23.60;65.00;;;;;;5165633;27;20042;-77
2022/07/20 06:42:05;;;;;;;18.00;7.17;;;23.70;64.60;;;;;;5124304;27;20451;-78
2022/07/20 06:44:31;;;;;;;11.50;6.60;;;23.80;64.80;;;;;;5137747;27;20039;-77
2022/07/20 06:46:56;;;;;;;18.53;6.77;;;23.80;65.20;;;;;;5137673;27;20754;-76
2022/07/20 06:49:24;;;;;;;14.33;6.90;;;24.00;65.70;;;;;;5156194;27;20490;-76
2022/07/20 06:51:50;;;;;;;11.95;7.38;;;24.10;66.00;;;;;;5137950;27;20051;-78
2022/07/20 06:54:16;;;;;;;16.80;7.13;;;24.20;64.70;;;;;;5157127;27;20046;-78
2022/07/20 06:56:42;;;;;;;11.98;7.65;;;24.30;65.40;;;;;;5137954;27;20054;-79
2022/07/20 06:59:07;;;;;;;13.10;8.07;;;24.40;65.20;;;;;;5137837;27;20043;-77
2022/07/20 07:01:33;;;;;;;19.15;8.02;;;24.50;65.10;;;;;;5156430;27;20227;-77
2022/07/20 07:03:59;;;;;;;19.07;8.13;;;24.60;64.80;;;;;;5137500;27;20038;-79
2022/07/20 07:06:28;;;;;;;19.95;8.95;;;24.60;64.90;;;;;;5120734;27;20046;-77
2022/07/20 07:08:55;;;;;;;18.30;8.80;;;24.70;65.10;;;;;;5139480;27;20396;-79
2022/07/20 07:11:20;;;;;;;;;;;24.80;65.30;;;;;;5140654;27;20093;-78
2022/07/20 07:13:46;;;;;;;22.00;10.32;;;24.90;65.70;;;;;;5159730;27;19919;-78
2022/07/20 07:16:12;;;;;;;20.37;10.20;;;25.00;65.60;;;;;;5161879;27;20046;-76
2022/07/20 07:18:37;;;;;;;22.10;10.63;;;25.00;65.50;;;;;;5160627;27;20050;-78
2022/07/20 07:21:04;;;;;;;23.13;11.33;;;25.20;65.80;;;;;;5140216;27;20363;-78
2022/07/20 07:23:29;;;;;;;21.33;10.80;;;25.30;66.00;;;;;;5142401;27;20066;-77
2022/07/20 07:25:55;;;;;;;20.33;11.27;;;25.40;65.90;;;;;;5113239;27;20141;-79
2022/07/20 07:28:21;;;;;;;22.90;10.70;;;25.50;66.20;;;;;;5169498;27;20312;-77
2022/07/20 07:30:50;;;;;;;21.85;10.77;;;25.60;67.50;;;;;;5152614;27;20281;-81
2022/07/20 07:33:16;;;;;;;22.27;11.85;;;25.70;67.00;;;;;;5137714;27;20050;-78
2022/07/20 07:35:42;;;;;;;21.90;11.82;;;25.90;67.00;;;;;;5170859;27;20105;-78
2022/07/20 07:38:08;;;;;;;21.85;11.25;;;26.00;67.50;;;;;;5152454;27;20043;-78
2022/07/20 07:40:34;;;;;;;21.67;13.10;;;26.10;66.90;;;;;;5135103;27;20191;-79
2022/07/20 07:42:59;;;;;;;31.52;14.63;;;26.20;67.50;;;;;;5152730;27;20046;-79
2022/07/20 07:45:25;;;;;;;29.87;15.20;;;26.20;67.50;;;;;;5166077;27;20088;-78
2022/07/20 07:47:51;;;;;;;31.63;18.13;;;26.30;68.10;;;;;;5164868;27;20280;-78
2022/07/20 07:50:17;;;;;;;36.88;18.23;;;26.40;70.10;;;;;;5165062;27;20074;-76
2022/07/20 07:52:43;;;;;;;30.80;17.65;;;26.40;69.70;;;;;;5144615;27;20043;-77
2022/07/20 07:55:09;;;;;;;28.70;19.07;;;26.50;70.00;;;;;;5145360;27;20359;-77
2022/07/20 07:57:35;;;;;;;37.40;19.73;;;26.60;70.90;;;;;;5162971;27;20414;-79
2022/07/20 08:00:01;;;;;;;36.30;21.08;;;26.60;70.60;;;;;;5143497;27;20066;-80
2022/07/20 08:02:27;;;;;;;36.10;20.58;;;26.70;71.10;;;;;;5163852;27;20042;-81
2022/07/20 08:04:53;;;;;;;37.88;21.02;;;26.70;71.10;;;;;;5143410;27;20091;-78
2022/07/20 08:07:18;;;;;;;36.70;21.63;;;26.80;71.70;;;;;;5158213;27;20042;-76
2022/07/20 08:09:44;;;;;;;37.87;22.23;;;26.90;71.60;;;;;;5158958;27;20049;-77
2022/07/20 08:12:10;;;;;;;37.40;21.80;;;26.90;71.80;;;;;;5138714;27;20620;-78
2022/07/20 08:14:36;;;;;;;44.00;22.58;;;26.90;72.50;;;;;;5138297;27;20082;-76
2022/07/20 08:17:02;;;;;;;39.40;22.73;;;27.00;72.70;;;;;;5156783;27;20127;-75
2022/07/20 08:19:28;;;;;;;38.10;22.73;;;27.00;73.00;;;;;;5136672;27;20083;-76
2022/07/20 08:21:53;;;;;;;37.90;22.65;;;27.00;73.60;;;;;;5155711;27;20045;-77
2022/07/20 08:24:19;;;;;;;39.97;22.25;;;27.00;73.10;;;;;;5155668;27;20039;-79
2022/07/20 08:26:45;;;;;;;41.72;23.63;;;27.10;72.90;;;;;;5119633;27;20122;-76
2022/07/20 08:29:11;;;;;;;50.17;24.08;;;27.20;72.40;;;;;;5142556;27;20042;-77
2022/07/20 08:31:36;;;;;;;40.15;23.95;;;27.10;73.70;;;;;;5138284;27;20126;-77
2022/07/20 08:34:02;;;;;;;45.35;25.15;;;27.20;73.30;;;;;;5137525;27;20135;-77
2022/07/20 08:36:28;;;;;;;37.13;24.08;;;27.20;73.10;;;;;;5136491;27;20130;-78
2022/07/20 08:38:54;;;;;;;41.45;25.13;;;27.20;72.80;;;;;;5154967;27;20054;-77
2022/07/20 08:41:21;;;;;;;40.85;25.08;;;27.20;73.20;;;;;;5154744;27;20123;-77
2022/07/20 08:43:47;;;;;;;43.03;26.00;;;27.30;73.20;;;;;;5136694;27;20121;-78
2022/07/20 08:46:13;;;;;;;41.67;25.13;;;27.30;72.50;;;;;;5120282;27;20054;-78
2022/07/20 08:48:41;;;;;;;44.20;26.45;;;27.40;72.70;;;;;;5137621;27;20034;-77
2022/07/20 08:51:07;;;;;;;42.53;26.55;;;27.50;72.30;;;;;;5158458;27;20038;-76
2022/07/20 08:53:33;;;;;;;45.17;26.13;;;27.60;71.90;;;;;;5140993;27;20053;-77
2022/07/20 08:55:58;;;;;;;42.38;26.35;;;27.70;71.80;;;;;;5123896;27;20133;-78
2022/07/20 08:58:24;;;;;;;41.53;26.83;;;27.70;71.80;;;;;;5140242;27;20102;-77
2022/07/20 09:00:51;;;;;;;44.38;27.38;;;27.80;71.80;;;;;;5140415;27;20051;-78
2022/07/20 09:03:17;;;;;;;47.05;26.67;;;27.80;71.20;;;;;;5123308;27;20049;-79
2022/07/20 09:05:43;;;;;;;46.03;28.27;;;27.90;70.20;;;;;;5122425;27;20050;-80
2022/07/20 09:08:19;;;;;;;45.17;28.77;;;28.00;70.10;;;;;;5140999;27;20470;-79
2022/07/20 09:10:49;;;;;;;48.53;29.70;;;28.10;70.00;;;;;;5142295;27;20082;-80
2022/07/20 09:13:21;;;;;;;48.35;29.23;;;28.10;69.60;;;;;;5160478;27;20054;-79
2022/07/20 09:15:52;;;;;;;48.20;29.70;;;28.20;69.30;;;;;;5159519;27;20090;-78
2022/07/20 09:18:28;;;;;;;49.55;32.40;;;28.20;69.40;;;;;;5161691;27;20047;-78
2022/07/20 09:20:55;;;;;;;44.97;30.83;;;28.20;67.50;;;;;;5122851;27;20050;-81
2022/07/20 09:23:29;;;;;;;45.15;31.67;;;28.20;67.10;;;;;;5140352;27;20363;-80
2022/07/20 09:25:57;;;;;;;47.00;31.73;;;28.20;67.90;;;;;;5159057;27;20086;-77
2022/07/20 09:28:34;;;;;;;47.25;31.00;;;28.30;68.30;;;;;;5158855;27;20099;-79
2022/07/20 09:30:59;;;;;;;45.55;28.33;;;28.30;65.30;;;;;;5140377;27;20421;-80
2022/07/20 09:33:30;;;;;;;48.10;28.80;;;28.40;65.30;;;;;;5140256;27;20103;-81
2022/07/20 09:36:01;;;;;;;44.67;29.48;;;28.30;65.60;;;;;;5140697;27;20096;-79
2022/07/20 09:38:41;;;;;;;43.28;26.30;;;28.40;65.40;;;;;;5159554;27;20084;-80
2022/07/20 09:41:28;;;;;;;40.58;26.58;;;28.40;64.50;;;;;;5123295;27;20058;-80
2022/07/20 09:43:55;;;;;;;39.33;24.50;;;28.40;65.60;;;;;;5139464;27;20057;-79
2022/07/20 09:46:26;;;;;;;40.13;24.42;;;28.30;65.00;;;;;;5139294;27;20082;-78
2022/07/20 09:48:54;;;;;;;35.65;22.42;;;28.40;64.90;;;;;;5139778;27;20050;-79
2022/07/20 09:51:27;;;;;;;39.05;22.10;;;28.50;64.50;;;;;;5138903;27;20121;-78
2022/07/20 09:53:59;;;;;;;32.05;21.27;;;28.40;63.60;;;;;;5157089;27;20490;-78
2022/07/20 09:56:26;;;;;;;36.80;20.77;;;28.40;64.20;;;;;;5139344;27;20082;-79
2022/07/20 09:58:55;;;;;;;33.58;20.92;;;28.40;64.40;;;;;;5140004;27;20050;-80
2022/07/20 10:01:23;;;;;;;37.97;22.63;;;28.50;64.60;;;;;;5157998;27;20050;-80
2022/07/20 10:03:51;;;;;;;34.10;20.90;;;28.40;66.10;;;;;;5157513;27;20438;-80
2022/07/20 10:06:18;;;;;;;39.72;19.98;;;28.50;66.40;;;;;;5157999;27;20054;-78
2022/07/20 10:08:45;;;;;;;27.77;18.05;;;28.60;65.40;;;;;;5139467;27;20046;-78
2022/07/20 10:11:12;;;;;;;26.08;17.77;;;28.60;65.20;;;;;;5157856;27;20050;-77
2022/07/20 10:13:39;;;;;;;29.95;16.85;;;28.70;65.20;;;;;;5138774;27;20363;-77
2022/07/20 10:16:18;;;;;;;28.05;15.10;;;28.70;62.60;;;;;;5158499;27;20049;-78
2022/07/20 10:18:45;;;;;;;21.35;14.80;;;28.70;61.20;;;;;;5138876;27;20051;-81
2022/07/20 10:21:46;;;;;;;26.20;16.15;;;28.60;62.00;;;;;;5157901;27;20053;-78
2022/07/20 10:24:31;;;;;;;29.17;15.52;;;28.60;62.90;;;;;;5139016;27;20058;-77
2022/07/20 10:27:03;;;;;;;28.15;15.88;;;28.70;63.20;;;;;;5156794;27;20379;-78
2022/07/20 10:29:30;;;;;;;25.63;14.65;;;28.70;62.80;;;;;;5156583;27;20051;-79
2022/07/20 10:32:00;;;;;;;25.63;14.18;;;28.70;62.30;;;;;;5138856;27;20043;-80
2022/07/20 10:34:41;;;;;;;21.73;14.32;;;28.70;62.80;;;;;;5138152;27;20099;-75
2022/07/20 10:37:24;;;;;;;25.08;14.43;;;28.70;63.30;;;;;;5156931;27;20043;-80
2022/07/20 10:40:10;;;;;;;28.40;15.45;;;28.70;62.80;;;;;;5138713;27;20133;-81
2022/07/20 10:42:45;;;;;;;25.55;13.73;;;28.70;62.50;;;;;;5156823;27;20588;-78
2022/07/20 10:45:19;;;;;;;23.15;14.50;;;28.60;62.10;;;;;;5138061;27;20043;-76
2022/07/20 10:47:49;;;;;;;22.80;13.60;;;28.60;61.80;;;;;;5139562;27;20064;-78
2022/07/20 10:50:37;;;;;;;21.20;12.90;;;28.60;61.70;;;;;;5137840;27;20047;-82
2022/07/20 10:53:11;;;;;;;23.25;13.25;;;28.70;61.40;;;;;;5138489;27;20378;-79
2022/07/20 10:55:37;;;;;;;21.42;12.82;;;28.70;60.50;;;;;;5137356;27;20503;-80
2022/07/20 10:58:15;;;;;;;20.45;12.93;;;28.80;60.90;;;;;;5137550;27;20051;-78
2022/07/20 11:00:44;;;;;;;18.58;12.70;;;28.80;61.90;;;;;;5137006;27;20043;-80
2022/07/20 11:03:23;;;;;;;20.30;13.07;;;28.80;62.50;;;;;;5121651;27;20057;-79
2022/07/20 11:05:59;;;;;;;22.52;12.50;;;28.80;61.40;;;;;;5155795;27;20099;-78
2022/07/20 11:08:25;;;;;;;22.15;12.05;;;28.90;61.80;;;;;;5156467;27;20383;-79
2022/07/20 11:10:52;;;;;;;24.95;12.27;;;29.00;62.00;;;;;;5137095;27;20127;-76
2022/07/20 11:13:18;;;;;;;22.10;11.90;;;29.10;60.60;;;;;;5137037;27;20074;-78
2022/07/20 11:15:47;;;;;;;21.40;12.27;;;29.00;61.20;;;;;;5137851;27;20058;-80
2022/07/20 11:18:21;;;;;;;18.95;10.80;;;29.10;61.20;;;;;;5155457;27;20042;-79
2022/07/20 11:20:57;;;;;;;24.15;11.73;;;29.00;61.30;;;;;;5138025;27;20051;-83
2022/07/20 11:23:25;;;;;;;21.35;10.88;;;29.10;61.60;;;;;;5156015;27;20054;-79
2022/07/20 11:25:56;;;;;;;20.60;11.18;;;29.20;60.20;;;;;;5155271;27;20474;-78
2022/07/20 11:28:25;;;;;;;18.35;11.73;;;29.20;60.20;;;;;;5120713;27;20075;-81
2022/07/20 11:30:52;;;;;;;23.05;11.10;;;29.30;60.40;;;;;;5137784;27;20053;-79
2022/07/20 11:33:28;;;;;;;18.10;11.45;;;29.30;60.90;;;;;;5139208;27;20131;-79
2022/07/20 11:35:56;;;;;;;19.23;11.07;;;29.50;59.80;;;;;;5136971;27;20054;-80
2022/07/20 11:38:23;;;;;;;19.65;10.80;;;29.30;60.20;;;;;;5136951;27;20123;-82
2022/07/20 11:41:04;;;;;;;19.73;10.57;;;29.50;60.80;;;;;;5138737;27;20134;-80
2022/07/20 11:43:30;;;;;;;20.55;10.77;;;29.70;59.70;;;;;;5156590;27;20065;-80
2022/07/20 11:46:13;;;;;;;;;;;29.70;59.50;;;;;;5102954;27;20050;-80
2022/07/20 11:48:39;;;;;;;17.55;10.63;;;29.70;60.20;;;;;;5138003;27;19919;-78
2022/07/20 11:51:06;;;;;;;21.38;11.30;;;29.80;59.40;;;;;;5121757;27;20062;-80
2022/07/20 11:53:34;;;;;;;18.77;10.57;;;29.90;58.70;;;;;;5124793;27;20185;-80
2022/07/20 11:56:02;;;;;;;14.93;10.18;;;29.90;58.50;;;;;;5159438;27;20110;-84
2022/07/20 11:58:31;;;;;;;17.27;9.50;;;29.80;58.30;;;;;;5142382;27;20043;-80
2022/07/20 12:00:59;;;;;;;21.52;9.95;;;29.80;57.70;;;;;;5124113;27;20043;-78
2022/07/20 12:03:32;;;;;;;23.85;10.35;;;29.80;58.00;;;;;;5159608;27;20038;-80
2022/07/20 12:06:07;;;;;;;19.67;10.20;;;29.60;58.10;;;;;;5156990;27;20474;-82
2022/07/20 12:08:33;;;;;;;16.27;10.00;;;29.70;58.60;;;;;;5137077;27;20046;-81
2022/07/20 12:10:59;;;;;;;;;;;29.70;58.70;;;;;;5103353;27;20051;-82
2022/07/20 12:13:26;;;;;;;17.95;10.10;;;29.70;58.30;;;;;;5136633;27;19919;-81
2022/07/20 12:16:10;;;;;;;17.63;9.98;;;29.50;57.70;;;;;;5155282;27;20046;-80
2022/07/20 12:18:38;;;;;;;17.13;9.85;;;29.60;58.10;;;;;;5156906;27;20043;-78
2022/07/20 12:21:06;;;;;;;16.90;9.52;;;29.50;56.80;;;;;;5154882;27;20371;-79
2022/07/20 12:23:33;;;;;;;14.73;9.07;;;29.60;58.10;;;;;;5138063;27;20133;-78
2022/07/20 12:25:59;;;;;;;17.02;10.05;;;29.70;58.00;;;;;;5140922;27;20043;-76
2022/07/20 12:28:36;;;;;;;16.90;9.77;;;29.70;57.60;;;;;;5141794;27;20049;-77
2022/07/20 12:31:20;;;;;;;18.55;9.68;;;29.70;58.30;;;;;;5141593;27;20049;-80
2022/07/20 12:34:12;;;;;;;16.55;10.40;;;29.80;58.40;;;;;;5124685;27;20046;-82
2022/07/20 12:36:56;;;;;;;17.40;10.32;;;29.90;58.10;;;;;;5123736;27;20058;-82
2022/07/20 12:39:39;;;;;;;17.35;11.23;;;30.00;57.90;;;;;;5159963;27;20424;-80
2022/07/20 12:42:22;;;;;;;20.85;11.15;;;29.90;56.90;;;;;;5141099;27;20053;-80